createdAt,value
2022-10-17T00:00:11.819Z,101081.03
2022-10-17T00:02:38.627Z,101074.66
2022-10-17T00:05:05.809Z,101072.19
2022-10-17T00:07:32.757Z,101061.59
2022-10-17T00:10:00.915Z,101070.50
2022-10-17T00:12:27.790Z,101054.50
2022-10-17T00:14:54.615Z,101063.88
2022-10-17T00:17:21.397Z,101071.94
2022-10-17T00:19:48.185Z,101076.75
2022-10-17T00:22:15.106Z,101083.88
2022-10-17T00:24:41.896Z,101073.44
2022-10-17T00:27:10.022Z,101075.84
2022-10-17T00:29:36.789Z,101066.97
2022-10-17T00:32:03.594Z,101066.56
2022-10-17T00:34:31.139Z,101076.47
2022-10-17T00:36:57.992Z,101078.47
2022-10-17T00:39:24.882Z,101079.97
2022-10-17T00:41:51.638Z,101078.84
2022-10-17T00:44:59.515Z,101070.47
2022-10-17T00:47:26.555Z,101071.72
2022-10-17T00:49:53.417Z,101070.59
2022-10-17T00:52:25.206Z,101066.88
2022-10-17T00:54:56.556Z,101071.81
2022-10-17T00:57:23.706Z,101074.19
2022-10-17T00:59:52.893Z,101080.84
2022-10-17T01:02:22.341Z,101079.69
2022-10-17T01:04:51.894Z,101086.34
2022-10-17T01:07:18.791Z,101083.78
2022-10-17T01:09:47.234Z,101079.28
2022-10-17T01:12:21.252Z,101076.19
2022-10-17T01:15:02.921Z,101072.16
2022-10-17T01:17:38.155Z,101079.13
2022-10-17T01:20:53.223Z,101078.31
2022-10-17T01:23:37.366Z,101076.75
2022-10-17T01:26:12.643Z,101078.31
2022-10-17T01:29:04.068Z,101088.88
2022-10-17T01:31:39.104Z,101074.41
2022-10-17T01:34:12.842Z,101079.66
2022-10-17T01:36:44.772Z,101080.91
2022-10-17T01:39:17.311Z,101074.44
2022-10-17T01:41:49.708Z,101077.59
2022-10-17T01:44:22.118Z,101084.31
2022-10-17T01:46:54.732Z,101089.47
2022-10-17T01:49:26.327Z,101092.69
2022-10-17T01:51:57.100Z,101080.63
2022-10-17T01:54:27.838Z,101083.00
2022-10-17T01:56:59.805Z,101083.25
2022-10-17T01:59:34.441Z,101086.06
2022-10-17T02:02:03.179Z,101089.69
2022-10-17T02:04:30.116Z,101105.06
2022-10-17T02:06:56.878Z,101108.16
2022-10-17T02:09:25.926Z,101093.72
2022-10-17T02:12:08.747Z,101090.69
2022-10-17T02:14:45.650Z,101095.06
2022-10-17T02:17:26.527Z,101089.00
2022-10-17T02:20:03.030Z,101091.34
2022-10-17T02:22:39.105Z,101083.72
2022-10-17T02:25:14.322Z,101097.09
2022-10-17T02:27:48.844Z,101093.78
2022-10-17T02:30:23.558Z,101096.22
2022-10-17T02:32:58.927Z,101102.28
2022-10-17T02:35:29.569Z,101096.31
2022-10-17T02:37:58.342Z,101094.75
2022-10-17T02:40:27.940Z,101100.41
2022-10-17T02:42:55.704Z,101095.19
2022-10-17T02:45:26.381Z,101093.25
2022-10-17T02:48:00.819Z,101094.78
2022-10-17T02:50:37.094Z,101101.91
2022-10-17T02:53:09.494Z,101114.50
2022-10-17T02:55:40.945Z,101113.00
2022-10-17T02:58:12.353Z,101138.94
2022-10-17T03:00:40.600Z,101136.84
2022-10-17T03:03:21.797Z,101132.03
2022-10-17T03:05:48.697Z,101118.81
2022-10-17T03:08:15.465Z,101119.28
2022-10-17T03:10:42.186Z,101119.81
2022-10-17T03:13:08.947Z,101121.72
2022-10-17T03:15:36.070Z,101124.13
2022-10-17T03:18:02.925Z,101123.94
2022-10-17T03:20:31.073Z,101122.59
2022-10-17T03:22:57.881Z,101127.56
2022-10-17T03:25:24.876Z,101126.06
2022-10-17T03:27:51.772Z,101114.66
2022-10-17T03:30:18.627Z,101121.53
2022-10-17T03:32:45.401Z,101118.72
2022-10-17T03:35:15.046Z,101131.47
2022-10-17T03:37:43.389Z,101125.94
2022-10-17T03:40:11.043Z,101123.91
2022-10-17T03:42:37.812Z,101115.53
2022-10-17T03:45:05.771Z,101124.56
2022-10-17T03:47:32.862Z,101127.06
2022-10-17T03:49:59.814Z,101129.41
2022-10-17T03:52:26.586Z,101132.72
2022-10-17T03:54:54.839Z,101131.13
2022-10-17T03:57:21.605Z,101133.66
2022-10-17T03:59:50.603Z,101140.53
2022-10-17T04:02:17.532Z,101136.13
2022-10-17T04:04:44.438Z,101147.81
2022-10-17T04:07:11.229Z,101151.03
2022-10-17T04:09:38.078Z,101150.19
2022-10-17T04:12:06.459Z,101163.09
2022-10-17T04:14:33.282Z,101172.31
2022-10-17T04:17:00.044Z,101187.31
2022-10-17T04:19:26.856Z,101178.34
2022-10-17T04:21:53.639Z,101177.19
2022-10-17T04:24:20.952Z,101183.59
2022-10-17T04:26:50.081Z,101173.53
2022-10-17T04:29:18.254Z,101179.59
2022-10-17T04:31:45.034Z,101186.13
2022-10-17T04:34:14.179Z,101183.72
2022-10-17T04:36:41.178Z,101191.84
2022-10-17T04:39:08.074Z,101181.72
2022-10-17T04:41:34.920Z,101194.28
2022-10-17T04:44:01.774Z,101195.09
2022-10-17T04:46:30.124Z,101194.94
2022-10-17T04:48:57.361Z,101189.28
2022-10-17T04:51:26.512Z,101187.66
2022-10-17T04:53:53.589Z,101183.34
2022-10-17T04:56:22.646Z,101178.91
2022-10-17T04:58:50.453Z,101181.53
2022-10-17T05:01:19.442Z,101190.16
2022-10-17T05:03:48.305Z,101193.28
2022-10-17T05:06:17.701Z,101195.91
2022-10-17T05:08:45.202Z,101192.53
2022-10-17T05:11:19.678Z,101201.47
2022-10-17T05:13:50.690Z,101188.88
2022-10-17T05:16:17.522Z,101192.56
2022-10-17T05:18:44.349Z,101189.72
2022-10-17T05:21:12.538Z,101197.00
2022-10-17T05:23:39.328Z,101201.44
2022-10-17T05:26:06.189Z,101190.13
2022-10-17T05:28:33.968Z,101189.38
2022-10-17T05:31:03.451Z,101195.06
2022-10-17T05:33:30.457Z,101189.88
2022-10-17T05:35:57.399Z,101206.53
2022-10-17T05:38:26.217Z,101204.09
2022-10-17T05:40:57.733Z,101198.13
2022-10-17T05:43:24.755Z,101199.22
2022-10-17T05:45:54.486Z,101202.03
2022-10-17T05:48:21.917Z,101205.75
2022-10-17T05:50:48.884Z,101210.63
2022-10-17T05:53:16.141Z,101212.25
2022-10-17T05:55:44.389Z,101234.03
2022-10-17T05:58:17.720Z,101236.16
2022-10-17T06:00:49.566Z,101271.59
2022-10-17T06:03:16.441Z,101295.25
2022-10-17T06:05:43.331Z,101300.53
2022-10-17T06:08:10.050Z,101315.97
2022-10-17T06:10:36.857Z,101320.22
2022-10-17T06:13:05.173Z,101319.28
2022-10-17T06:15:32.017Z,101338.97
2022-10-17T06:17:58.836Z,101334.66
2022-10-17T06:20:25.687Z,101340.47
2022-10-17T06:22:52.475Z,101338.94
2022-10-17T06:25:19.417Z,101348.53
2022-10-17T06:27:46.421Z,101363.06
2022-10-17T06:30:14.586Z,101375.69
2022-10-17T06:32:41.981Z,101363.97
2022-10-17T06:35:09.051Z,101340.97
2022-10-17T06:37:37.130Z,101324.06
2022-10-17T06:40:05.160Z,101332.22
2022-10-17T06:42:32.086Z,101334.28
2022-10-17T06:44:58.884Z,101337.44
2022-10-17T06:47:27.286Z,101360.38
2022-10-17T06:49:54.229Z,101373.34
2022-10-17T06:52:21.279Z,101370.06
2022-10-17T06:54:48.057Z,101379.44
2022-10-17T06:57:17.485Z,101379.34
2022-10-17T06:59:44.229Z,101381.72
2022-10-17T07:02:11.888Z,101385.44
2022-10-17T07:04:40.502Z,101381.41
2022-10-17T07:07:07.307Z,101392.28
2022-10-17T07:09:34.540Z,101394.72
2022-10-17T07:12:01.487Z,101401.19
2022-10-17T07:14:32.112Z,101404.56
2022-10-17T07:16:59.475Z,101417.63
2022-10-17T07:19:27.177Z,101415.84
2022-10-17T07:21:55.690Z,101417.41
2022-10-17T07:24:22.497Z,101426.75
2022-10-17T07:26:49.431Z,101409.78
2022-10-17T07:29:16.445Z,101394.19
2022-10-17T07:31:45.610Z,101382.47
2022-10-17T07:34:12.642Z,101378.00
2022-10-17T07:36:39.640Z,101386.38
2022-10-17T07:39:07.882Z,101372.19
2022-10-17T07:41:34.741Z,101371.09
2022-10-17T07:44:01.601Z,101361.44
2022-10-17T07:46:28.408Z,101359.06
2022-10-17T07:48:55.336Z,101375.28
2022-10-17T07:51:22.241Z,101391.81
2022-10-17T07:53:52.425Z,101388.69
2022-10-17T07:56:24.618Z,101414.78
2022-10-17T07:58:52.337Z,101433.41
2022-10-17T08:01:19.275Z,101441.16
2022-10-17T08:03:48.653Z,101437.47
2022-10-17T08:06:16.352Z,101444.88
2022-10-17T08:08:43.717Z,101440.75
2022-10-17T08:11:13.404Z,101440.84
2022-10-17T08:13:42.344Z,101442.66
2022-10-17T08:16:11.788Z,101452.56
2022-10-17T08:18:40.052Z,101458.09
2022-10-17T08:21:11.270Z,101478.47
2022-10-17T08:23:38.083Z,101480.72
2022-10-17T08:26:08.187Z,101488.75
2022-10-17T08:28:35.725Z,101495.69
2022-10-17T08:31:05.190Z,101504.19
2022-10-17T08:33:33.361Z,101497.38
2022-10-17T08:36:00.402Z,101494.16
2022-10-17T08:38:29.403Z,101499.09
2022-10-17T08:41:01.462Z,101505.47
2022-10-17T08:43:45.005Z,101507.00
2022-10-17T08:48:48.066Z,101516.97
2022-10-17T08:51:20.097Z,101533.97
2022-10-17T08:53:53.909Z,101535.91
2022-10-17T08:56:25.159Z,101543.00
2022-10-17T08:59:12.526Z,101537.03
2022-10-17T09:01:48.464Z,101544.31
2022-10-17T09:04:47.912Z,101556.84
2022-10-17T09:07:21.661Z,101555.63
2022-10-17T09:09:53.565Z,101548.47
2022-10-17T09:12:25.374Z,101543.59
2022-10-17T09:15:12.499Z,101541.69
2022-10-17T09:17:52.555Z,101546.06
2022-10-17T09:20:22.598Z,101556.22
2022-10-17T09:25:28.914Z,101560.31
2022-10-17T09:28:04.443Z,101570.81
2022-10-17T09:30:45.589Z,101577.56
2022-10-17T09:33:28.293Z,101572.13
2022-10-17T09:36:04.477Z,101580.41
2022-10-17T09:38:39.204Z,101582.06
2022-10-17T09:41:39.186Z,101593.44
2022-10-17T09:44:13.755Z,101595.53
2022-10-17T09:46:41.249Z,101605.78
2022-10-17T09:49:17.573Z,101606.22
2022-10-17T09:51:44.500Z,101603.00
2022-10-17T09:54:20.872Z,101595.66
2022-10-17T09:56:58.688Z,101599.34
2022-10-17T09:59:33.705Z,101607.63
2022-10-17T10:02:09.152Z,101603.41
2022-10-17T10:04:59.786Z,101619.91
2022-10-17T10:07:29.266Z,101601.81
2022-10-17T10:09:57.238Z,101584.66
2022-10-17T10:12:26.772Z,101572.06
2022-10-17T10:14:55.395Z,101575.97
2022-10-17T10:17:35.468Z,101589.00
2022-10-17T10:20:23.967Z,101603.31
2022-10-17T10:23:06.148Z,101604.94
2022-10-17T10:25:33.603Z,101620.72
2022-10-17T10:28:01.552Z,101626.47
2022-10-17T10:30:31.433Z,101628.41
2022-10-17T10:33:00.929Z,101636.00
2022-10-17T10:35:33.580Z,101623.91
2022-10-17T10:38:03.045Z,101626.53
2022-10-17T10:40:33.425Z,101633.38
2022-10-17T10:43:05.447Z,101640.25
2022-10-17T10:45:48.153Z,101647.19
2022-10-17T10:48:23.794Z,101643.84
2022-10-17T10:50:56.301Z,101663.03
2022-10-17T10:53:35.947Z,101670.19
2022-10-17T10:56:10.896Z,101670.44
2022-10-17T10:58:46.860Z,101687.72
2022-10-17T11:01:22.287Z,101691.69
2022-10-17T11:04:00.259Z,101693.78
2022-10-17T11:06:34.361Z,101694.91
2022-10-17T11:09:13.048Z,101694.44
2022-10-17T11:11:44.570Z,101706.56
2022-10-17T11:14:18.703Z,101703.16
2022-10-17T11:16:51.898Z,101714.13
2022-10-17T11:19:25.416Z,101714.97
2022-10-17T11:22:05.468Z,101732.44
2022-10-17T11:24:38.241Z,101735.13
2022-10-17T11:27:07.025Z,101744.59
2022-10-17T11:29:36.784Z,101749.78
2022-10-17T11:32:08.492Z,101746.59
2022-10-17T11:34:40.913Z,101742.03
2022-10-17T11:37:16.549Z,101749.75
2022-10-17T11:39:49.544Z,101758.00
2022-10-17T11:42:21.797Z,101765.19
2022-10-17T11:44:52.360Z,101768.47
2022-10-17T11:47:31.638Z,101769.63
2022-10-17T11:52:57.296Z,101767.47
2022-10-17T11:55:26.183Z,101776.50
2022-10-17T11:58:17.696Z,101785.88
2022-10-17T12:00:55.251Z,101787.81
2022-10-17T12:03:41.325Z,101789.09
2022-10-17T12:06:17.197Z,101796.50
2022-10-17T12:08:53.065Z,101794.88
2022-10-17T12:11:34.628Z,101802.53
2022-10-17T12:14:05.854Z,101803.63
2022-10-17T12:16:47.853Z,101798.28
2022-10-17T12:19:35.230Z,101807.41
2022-10-17T12:22:19.772Z,101807.13
2022-10-17T12:24:56.077Z,101810.72
2022-10-17T12:27:36.333Z,101807.63
2022-10-17T12:30:07.605Z,101815.41
2022-10-17T12:32:53.358Z,101822.22
2022-10-17T12:35:23.845Z,101818.09
2022-10-17T12:38:15.187Z,101821.69
2022-10-17T12:40:55.354Z,101814.53
2022-10-17T12:43:47.095Z,101813.56
2022-10-17T12:46:54.861Z,101816.91
2022-10-17T12:49:38.262Z,101824.03
2022-10-17T12:52:22.021Z,101828.53
2022-10-17T12:55:07.272Z,101828.13
2022-10-17T12:57:44.883Z,101825.31
2022-10-17T13:00:19.997Z,101827.31
2022-10-17T13:02:49.026Z,101827.75
2022-10-17T13:05:22.294Z,101820.38
2022-10-17T13:07:50.143Z,101827.47
2022-10-17T13:10:21.598Z,101832.97
2022-10-17T13:12:51.309Z,101830.63
2022-10-17T13:15:20.121Z,101836.00
2022-10-17T13:17:56.240Z,101838.00
2022-10-17T13:20:30.598Z,101840.44
2022-10-17T13:22:59.323Z,101846.91
2022-10-17T13:25:27.601Z,101850.66
2022-10-17T13:28:11.966Z,101862.88
2022-10-17T13:30:38.759Z,101869.28
2022-10-17T13:33:27.874Z,101865.91
2022-10-17T13:36:00.422Z,101865.22
2022-10-17T13:38:30.312Z,101867.22
2022-10-17T13:41:05.909Z,101867.22
2022-10-17T13:43:45.104Z,101870.31
2022-10-17T13:46:36.650Z,101873.94
2022-10-17T13:49:11.809Z,101871.56
2022-10-17T13:51:44.336Z,101875.06
2022-10-17T13:54:18.699Z,101874.09
2022-10-17T13:56:56.534Z,101879.72
2022-10-17T13:59:28.459Z,101884.03
2022-10-17T14:01:56.022Z,101890.91
2022-10-17T14:04:22.803Z,101898.69
2022-10-17T14:06:52.147Z,101894.03
2022-10-17T14:09:22.723Z,101892.88
2022-10-17T14:12:00.076Z,101894.38
2022-10-17T14:14:30.423Z,101900.06
2022-10-17T14:17:01.368Z,101903.63
2022-10-17T14:19:33.201Z,101899.00
2022-10-17T14:22:17.515Z,101897.91
2022-10-17T14:24:44.638Z,101903.19
2022-10-17T14:27:26.377Z,101902.41
2022-10-17T14:29:58.483Z,101897.94
2022-10-17T14:32:25.477Z,101907.59
2022-10-17T14:34:58.347Z,101901.91
2022-10-17T14:37:43.790Z,101911.25
2022-10-17T14:40:16.713Z,101911.94
2022-10-17T14:42:44.775Z,101915.16
2022-10-17T14:45:23.492Z,101922.41
2022-10-17T14:47:51.644Z,101924.47
2022-10-17T14:50:24.876Z,101922.41
2022-10-17T14:53:03.792Z,101919.94
2022-10-17T14:55:33.250Z,101928.19
2022-10-17T14:58:00.149Z,101926.94
2022-10-17T15:00:28.554Z,101935.09
2022-10-17T15:02:56.217Z,101941.25
2022-10-17T15:05:23.643Z,101939.59
2022-10-17T15:07:50.671Z,101938.41
2022-10-17T15:10:25.866Z,101945.97
2022-10-17T15:12:59.271Z,101958.56
2022-10-17T15:15:33.239Z,101961.72
2022-10-17T15:18:00.569Z,101968.53
2022-10-17T15:20:29.506Z,101956.41
2022-10-17T15:22:57.597Z,101953.53
2022-10-17T15:25:25.070Z,101959.94
2022-10-17T15:27:52.277Z,101966.84
2022-10-17T15:30:22.772Z,101957.34
2022-10-17T15:32:51.572Z,101967.00
2022-10-17T15:35:19.094Z,101970.88
2022-10-17T15:37:49.092Z,101979.34
2022-10-17T15:40:18.777Z,101979.34
2022-10-17T15:42:45.586Z,101987.44
2022-10-17T15:45:16.063Z,101983.78
2022-10-17T15:47:49.448Z,101978.03
2022-10-17T15:50:18.452Z,101986.88
2022-10-17T15:52:47.080Z,101988.41
2022-10-17T15:55:13.961Z,101998.50
2022-10-17T15:57:44.093Z,102004.63
2022-10-17T16:00:16.810Z,101996.38
2022-10-17T16:02:43.971Z,101998.66
2022-10-17T16:05:14.962Z,101995.25
2022-10-17T16:07:43.471Z,101990.63
2022-10-17T16:10:10.299Z,101992.50
2022-10-17T16:12:41.264Z,101991.03
2022-10-17T16:15:13.220Z,101997.06
2022-10-17T16:17:40.301Z,101996.25
2022-10-17T16:20:08.164Z,102006.63
2022-10-17T16:22:38.134Z,102015.09
2022-10-17T16:25:10.162Z,102018.44
2022-10-17T16:27:38.067Z,102018.31
2022-10-17T16:30:07.058Z,102015.41
2022-10-17T16:32:34.197Z,102013.31
2022-10-17T16:35:01.566Z,102028.66
2022-10-17T16:37:28.365Z,102025.69
2022-10-17T16:39:55.169Z,102030.78
2022-10-17T16:42:24.951Z,102013.25
2022-10-17T16:44:51.899Z,102011.38
2022-10-17T16:47:19.708Z,102012.47
2022-10-17T16:49:46.556Z,102016.59
2022-10-17T16:52:17.078Z,102006.81
2022-10-17T16:54:46.622Z,102004.88
2022-10-17T16:57:13.568Z,102000.56
2022-10-17T16:59:41.948Z,102015.19
2022-10-17T17:02:10.392Z,102021.50
2022-10-17T17:04:37.307Z,102024.69
2022-10-17T17:07:04.247Z,102019.41
2022-10-17T17:09:31.023Z,102018.16
2022-10-17T17:11:57.767Z,102023.63
2022-10-17T17:14:24.649Z,102028.75
2022-10-17T17:16:53.028Z,102037.88
2022-10-17T17:19:20.508Z,102037.72
2022-10-17T17:21:51.059Z,102039.66
2022-10-17T17:24:21.021Z,102034.72
2022-10-17T17:26:51.468Z,102044.75
2022-10-17T17:29:18.200Z,102050.88
2022-10-17T17:31:45.006Z,102042.72
2022-10-17T17:34:17.172Z,102044.94
2022-10-17T17:36:45.230Z,102043.31
2022-10-17T17:39:14.612Z,102039.91
2022-10-17T17:41:42.493Z,102037.88
2022-10-17T17:44:15.585Z,102047.19
2022-10-17T17:46:43.935Z,102051.56
2022-10-17T17:49:11.694Z,102052.84
2022-10-17T17:51:41.616Z,102052.78
2022-10-17T17:54:11.498Z,102061.72
2022-10-17T17:56:39.136Z,102056.06
2022-10-17T17:59:06.025Z,102058.72
2022-10-17T18:01:39.035Z,102054.97
2022-10-17T18:04:08.734Z,102053.69
2022-10-17T18:06:36.586Z,102053.78
2022-10-17T18:09:06.545Z,102062.66
2022-10-17T18:11:33.794Z,102069.06
2022-10-17T18:14:01.925Z,102069.88
2022-10-17T18:16:30.137Z,102077.00
2022-10-17T18:19:00.318Z,102084.13
2022-10-17T18:21:29.358Z,102085.75
2022-10-17T18:23:56.220Z,102093.34
2022-10-17T18:26:24.536Z,102095.31
2022-10-17T18:28:51.448Z,102105.84
2022-10-17T18:31:24.006Z,102104.84
2022-10-17T18:33:52.138Z,102107.56
2022-10-17T18:36:19.726Z,102107.94
2022-10-17T18:38:46.537Z,102110.66
2022-10-17T18:41:15.500Z,102103.63
2022-10-17T18:43:45.415Z,102106.25
2022-10-17T18:46:15.506Z,102109.56
2022-10-17T18:48:44.502Z,102110.38
2022-10-17T18:51:12.156Z,102110.84
2022-10-17T18:53:39.897Z,102113.47
2022-10-17T18:56:06.985Z,102117.81
2022-10-17T18:58:33.741Z,102126.69
2022-10-17T19:01:04.156Z,102125.31
2022-10-17T19:03:31.375Z,102124.03
2022-10-17T19:06:01.286Z,102124.28
2022-10-17T19:08:28.112Z,102118.91
2022-10-17T19:10:54.836Z,102131.03
2022-10-17T19:13:21.826Z,102126.66
2022-10-17T19:15:48.699Z,102130.34
2022-10-17T19:18:17.015Z,102133.03
2022-10-17T19:20:43.861Z,102137.41
2022-10-17T19:23:10.571Z,102144.47
2022-10-17T19:25:37.328Z,102145.28
2022-10-17T19:28:04.337Z,102143.91
2022-10-17T19:30:31.141Z,102141.31
2022-10-17T19:32:57.886Z,102139.69
2022-10-17T19:35:26.128Z,102144.75
2022-10-17T19:37:52.914Z,102151.22
2022-10-17T19:40:19.721Z,102144.28
2022-10-17T19:42:46.483Z,102146.28
2022-10-17T19:45:13.219Z,102147.47
2022-10-17T19:47:40.050Z,102138.88
2022-10-17T19:50:07.920Z,102147.72
2022-10-17T19:52:36.119Z,102143.72
2022-10-17T19:55:02.995Z,102152.91
2022-10-17T19:57:29.787Z,102147.50
2022-10-17T19:59:56.933Z,102138.69
2022-10-17T20:02:23.702Z,102140.09
2022-10-17T20:04:59.983Z,102150.47
2022-10-17T20:07:39.408Z,102147.28
2022-10-17T20:10:07.133Z,102152.94
2022-10-17T20:12:34.030Z,102168.22
2022-10-17T20:15:00.740Z,102165.88
2022-10-17T20:17:27.666Z,102163.53
2022-10-17T20:19:54.440Z,102168.47
2022-10-17T20:22:21.261Z,102166.81
2022-10-17T20:24:49.946Z,102170.81
2022-10-17T20:27:16.733Z,102171.53
2022-10-17T20:29:43.775Z,102178.38
2022-10-17T20:32:10.544Z,102182.81
2022-10-17T20:34:37.382Z,102178.84
2022-10-17T20:37:04.427Z,102177.28
2022-10-17T20:39:31.268Z,102186.84
2022-10-17T20:41:59.415Z,102189.28
2022-10-17T20:44:26.194Z,102192.25
2022-10-17T20:47:01.718Z,102183.66
2022-10-17T20:49:30.478Z,102186.13
2022-10-17T20:51:57.563Z,102192.59
2022-10-17T20:54:24.624Z,102197.44
2022-10-17T20:56:51.878Z,102196.84
2022-10-17T20:59:20.619Z,102196.84
2022-10-17T21:01:48.166Z,102208.97
2022-10-17T21:04:44.668Z,102208.72
2022-10-17T21:07:01.950Z,102214.84
2022-10-17T21:09:28.752Z,102209.66
2022-10-17T21:11:55.711Z,102209.44
2022-10-17T21:14:25.337Z,102219.56
2022-10-17T21:16:54.705Z,102222.03
2022-10-17T21:19:21.909Z,102226.72
2022-10-17T21:21:48.957Z,102222.38
2022-10-17T21:24:18.158Z,102225.31
2022-10-17T21:26:46.534Z,102224.88
2022-10-17T21:29:14.337Z,102217.53
2022-10-17T21:31:44.097Z,102225.56
2022-10-17T21:34:13.283Z,102219.91
2022-10-17T21:36:40.214Z,102230.50
2022-10-17T21:41:34.723Z,102225.91
2022-10-17T21:44:04.298Z,102225.31
2022-10-17T21:46:31.878Z,102222.06
2022-10-17T21:49:00.704Z,102216.53
2022-10-17T21:51:27.700Z,102221.22
2022-10-17T21:53:56.496Z,102222.41
2022-10-17T21:56:30.742Z,102227.22
2022-10-17T21:58:58.282Z,102235.22
2022-10-17T22:01:27.696Z,102231.34
2022-10-17T22:03:56.354Z,102227.34
2022-10-17T22:06:39.622Z,102224.03
2022-10-17T22:09:09.137Z,102221.09
2022-10-17T22:11:36.099Z,102219.69
2022-10-17T22:14:05.239Z,102233.91
2022-10-17T22:16:32.743Z,102234.41
2022-10-17T22:19:04.853Z,102235.34
2022-10-17T22:21:35.734Z,102240.38
2022-10-17T22:24:05.782Z,102239.22
2022-10-17T22:26:34.221Z,102238.84
2022-10-17T22:29:02.269Z,102227.94
2022-10-17T22:31:29.103Z,102237.69
2022-10-17T22:33:56.196Z,102228.75
2022-10-17T22:36:23.067Z,102239.00
2022-10-17T22:38:51.461Z,102233.91
2022-10-17T22:41:18.310Z,102236.16
2022-10-17T22:43:45.134Z,102242.38
2022-10-17T22:46:14.222Z,102243.47
2022-10-17T22:48:41.123Z,102236.50
2022-10-17T22:51:08.491Z,102234.84
2022-10-17T22:53:37.318Z,102239.34
2022-10-17T22:56:08.044Z,102243.09
2022-10-17T22:58:36.093Z,102238.63
2022-10-17T23:01:03.914Z,102249.78
2022-10-17T23:03:32.233Z,102239.56
2022-10-17T23:05:59.346Z,102248.97
2022-10-17T23:08:27.034Z,102246.03
2022-10-17T23:10:54.058Z,102249.78
2022-10-17T23:13:22.345Z,102246.72
2022-10-17T23:15:51.713Z,102240.09
2022-10-17T23:18:18.834Z,102236.31
2022-10-17T23:20:46.002Z,102237.94
2022-10-17T23:23:13.093Z,102231.38
2022-10-17T23:25:40.537Z,102242.53
2022-10-17T23:28:08.745Z,102247.22
2022-10-17T23:30:37.482Z,102246.75
2022-10-17T23:33:04.942Z,102240.50
2022-10-17T23:35:31.848Z,102248.84
2022-10-17T23:37:58.686Z,102237.28
2022-10-17T23:40:25.516Z,102241.28
2022-10-17T23:42:52.275Z,102243.16
2022-10-17T23:45:19.173Z,102250.34
2022-10-17T23:47:47.408Z,102247.16
2022-10-17T23:50:14.183Z,102246.31
2022-10-17T23:52:40.922Z,102243.63
2022-10-17T23:55:09.343Z,102251.16
2022-10-17T23:57:36.122Z,102245.50
